EHRDEBAW

Guest
Details From EHRD - Rotterdam The Hague
To EBAW - Antwerp Deurne
Flight Number -
Tags generated
Created
Modified
Stats Distance 47 nm / 86 km
Max Altitude 3,500 ft / 1,067 m
Waypoints 3
Social Downloads 4
Likes 0
Share VATSIM

Download

Looking for another format? Having issues loading an existing format? Contact us
Advertisement - Login to hide

Notes

Basic altitude profile: - Ascent Rate: 2500ft/min - Ascent Speed: 250kts - Cruise Altitude: 35000ft - Cruise Speed: 420kts - Descent Rate: 1500ft/min - Descent Speed: 250kts Options: - Use NATs: yes - Use PACOTS: yes - Use low airways: yes - Use high airways: yes

Route

EHRD RUPIN EBAW

ID Type Via Altitude Latitude Longitude Leg Dist Tot Dist Heading (true) Name
O EHRD APT - 0 ft / 0 m 51.95747˚ 4.44166˚ - 0 nm - Rotterdam The Hague
RUPIN FIX - 3,500 ft / 1,067 m 51.46050˚ 4.54052˚ 30 nm 30 nm 173° / 173° -
O EBAW APT - 0 ft / 0 m 51.19065˚ 4.46378˚ 16 nm 46 nm 190° / 190° Antwerp Deurne

Altitude Profile

Advertisement - Login to hide

EHRD

Details ICAO EHRD (RTM)
Name Rotterdam The Hague
Region Netherlands
Timezone Europe/Amsterdam (UTC+1.0)
Stats Elevation -15 ft / -5 m (AMSL)
Location 51.957468° 4.441662°
Runways 1
Magnetic Variation 1.048° E

METAR

EHRD 162055Z AUTO 26008KT 230V300 9999 FEW014 FEW015CB SCT016 BKN021 04/02 Q1017 TEMPO 6000 SHRAGS SCT020CB

Decode

TAF

TAF EHRD 161703Z 1618/1724 30006KT 9999 SCT025 PROB40 TEMPO 1618/1703 33012G22KT 6000 SHRAGS SCT020CB BKN030 BECMG 1709/1712 23006KT BECMG 1715/1718 20012KT BECMG 1718/1720 7000 -RA SCT010 BKN014 BECMG 1721/1724 28013G23KT TEMPO 1722/1724 4000 RA SCT005 BKN008

Decode

Departure Runways

ID Width Length Bearing (true) Bearing (mag) Surface Threshold Offset Overrun Length
06 148 ft / 45 m 7,201 ft / 2,195 m 56.93° 55.88° Asphalt 656 ft / 200 m 0 ft / 0 m
24 148 ft / 45 m 7,201 ft / 2,195 m 236.95° 235.90° Asphalt 656 ft / 200 m 0 ft / 0 m

EBAW

Details ICAO EBAW (ANR)
Name Antwerp Deurne
Region Belgium
Timezone Europe/Brussels (UTC+1.0)
Stats Elevation 39 ft / 12 m (AMSL)
Location 51.190654° 4.463776°
Runways 2
Magnetic Variation 1.099° E

METAR

EBAW 162050Z 26007KT 9999 FEW024 03/00 Q1018 NOSIG

Decode

TAF

Not found

Destination Runways

ID Width Length Bearing (true) Bearing (mag) Surface Threshold Offset Overrun Length
11 148 ft / 45 m 4,931 ft / 1,503 m 109.83° 108.73° Asphalt 472 ft / 144 m 0 ft / 0 m
11L 164 ft / 50 m 3,317 ft / 1,011 m 109.83° 108.73° Grass 0 ft / 0 m 0 ft / 0 m
29 148 ft / 45 m 4,931 ft / 1,503 m 289.85° 288.75° Asphalt 400 ft / 122 m 0 ft / 0 m
29R 164 ft / 50 m 3,317 ft / 1,011 m 289.85° 288.75° Grass 0 ft / 0 m 0 ft / 0 m

Approach Navaids

Runway Type Ident Frequency Range Bearing (true) Bearing (mag) Slope Elevation
29 Localiser IAD 111.75 MHz 18 nm / 33 km 289.64° 288.54° - 39 ft / 12 m (AMSL)
29 Glidescope IAD 111.75 MHz 10 nm / 19 km 289.84° 288.74° 3.00° 39 ft / 12 m (AMSL)
29 DME IAD 111.75 MHz 18 nm / 33 km - - - 39 ft / 12 m (AMSL)

Popular Alternatives